Time;durP1;ratioP1;P1;durP2;ratioP2;P2;SDS_P1;SDS_P2;PMS_P1;PMS_P2;Temp;Humidity;BMP_temperature;BMP_pressure;BME280_temperature;BME280_humidity;BME280_pressure;Samples;Min_cycle;Max_cycle;Signal;HPM_P1;HPM_P2
2023/01/03 00:02:06;;;;;;;6.50;5.90;;;;;;;12.11;66.35;94959.20;1826636;78;21145;-43
2023/01/03 00:04:33;;;;;;;6.83;5.25;;;;;;;12.14;66.31;94961.83;1794593;80;21003;-43
2023/01/03 00:06:59;;;;;;;7.67;5.85;;;;;;;12.17;66.15;94967.03;1826702;78;21023;-43
2023/01/03 00:09:26;;;;;;;6.97;6.20;;;;;;;12.21;66.04;94964.31;1794452;80;21257;-42
2023/01/03 00:14:42;;;;;;;7.90;6.15;;;;;;;12.21;65.94;94978.10;1794456;80;20967;-43
2023/01/03 00:17:09;;;;;;;6.95;6.17;;;;;;;12.16;66.08;94986.97;1826577;78;21000;-42
2023/01/03 00:19:41;;;;;;;6.75;5.55;;;;;;;12.13;66.14;94998.91;1794709;79;20956;-44
2023/01/03 00:22:08;;;;;;;6.70;5.60;;;;;;;12.11;66.20;95002.70;1771190;81;21240;-43
2023/01/03 00:24:35;;;;;;;6.45;5.85;;;;;;;12.11;66.10;95008.22;1770557;81;21128;-42
2023/01/03 00:27:02;;;;;;;6.37;5.78;;;;;;;12.13;66.06;95011.32;1768301;81;21116;-43
2023/01/03 00:29:29;;;;;;;10.88;6.30;;;;;;;12.13;65.98;95017.43;1768755;81;21097;-44
2023/01/03 00:31:55;;;;;;;11.70;6.65;;;;;;;12.11;65.97;95009.59;1768571;80;21189;-43
2023/01/03 00:34:22;;;;;;;11.43;8.13;;;;;;;12.07;66.05;95011.72;1768700;81;21264;-43
2023/01/03 00:36:49;;;;;;;9.05;6.78;;;;;;;12.03;66.17;95008.33;1767370;81;21079;-45
2023/01/03 00:39:15;;;;;;;8.25;7.05;;;;;;;12.02;66.22;95015.06;1768623;81;20969;-43
2023/01/03 00:41:43;;;;;;;11.35;8.70;;;;;;;12.01;66.26;95011.36;1768275;80;21049;-44
2023/01/03 00:44:11;;;;;;;15.03;9.75;;;;;;;11.99;66.34;95011.05;1768478;81;21026;-44
2023/01/03 00:46:38;;;;;;;10.32;8.18;;;;;;;11.95;66.39;95012.58;1768408;81;21235;-44
2023/01/03 00:49:06;;;;;;;11.60;8.15;;;;;;;11.89;66.50;95019.87;1767792;81;21786;-42
2023/01/03 00:51:36;;;;;;;17.00;11.38;;;;;;;11.88;66.60;95018.95;1768195;81;21033;-43
2023/01/03 00:54:04;;;;;;;22.52;12.58;;;;;;;11.86;66.63;95021.39;1787985;80;21525;-43
2023/01/03 00:56:34;;;;;;;24.65;13.22;;;;;;;11.81;66.71;95033.75;1787534;80;21148;-42
2023/01/03 00:59:00;;;;;;;29.45;14.43;;;;;;;11.76;66.84;95032.95;1787895;80;21255;-44
2023/01/03 01:01:33;;;;;;;16.27;11.12;;;;;;;11.72;66.96;95031.53;1787752;80;20956;-42
2023/01/03 01:04:10;;;;;;;19.42;10.85;;;;;;;11.67;67.12;95034.25;1787656;80;20949;-44
2023/01/03 01:06:47;;;;;;;21.07;11.57;;;;;;;11.67;67.19;95036.22;1787751;80;21648;-42
2023/01/03 01:09:18;;;;;;;13.10;9.33;;;;;;;11.64;67.23;95035.14;1759078;80;21009;-43
2023/01/03 01:11:46;;;;;;;15.23;9.13;;;;;;;11.63;67.23;95034.98;1752793;81;21833;-42
2023/01/03 01:14:20;;;;;;;49.38;17.82;;;;;;;11.62;67.27;95045.06;1752436;81;21513;-43
2023/01/03 01:16:56;;;;;;;44.20;17.87;;;;;;;11.60;67.23;95046.91;1752365;80;21044;-43
2023/01/03 01:19:30;;;;;;;24.55;11.63;;;;;;;11.59;67.18;95045.95;1749021;81;21537;-43
2023/01/03 01:21:57;;;;;;;22.15;11.22;;;;;;;11.55;67.21;95047.42;1676689;85;21043;-43
2023/01/03 01:24:24;;;;;;;27.37;12.88;;;;;;;11.50;67.23;95052.13;1677287;85;21257;-43
2023/01/03 01:26:50;;;;;;;42.73;19.52;;;;;;;11.48;67.31;95061.45;1677386;85;21700;-42
2023/01/03 01:29:18;;;;;;;81.87;30.40;;;;;;;11.44;67.40;95056.67;1677779;85;21083;-43
2023/01/03 01:31:46;;;;;;;24.00;12.95;;;;;;;11.41;67.48;95054.03;1677309;85;21576;-42
2023/01/03 01:34:14;;;;;;;20.12;10.20;;;;;;;11.38;67.78;95054.92;1677581;85;21082;-42
2023/01/03 01:36:41;;;;;;;15.98;10.08;;;;;;;11.40;67.97;95058.00;1677106;85;21132;-42
2023/01/03 01:39:14;;;;;;;11.43;9.15;;;;;;;11.48;67.94;95061.45;1677191;85;21067;-44
2023/01/03 01:44:57;;;;;;;22.22;13.50;;;;;;;11.59;67.67;95063.28;1677477;85;21129;-43
2023/01/03 01:47:58;;;;;;;20.62;10.72;;;;;;;11.61;67.62;95066.36;1676659;85;21111;-43
2023/01/03 01:50:45;;;;;;;13.43;9.83;;;;;;;11.61;67.67;95071.08;1677440;85;21169;-42
2023/01/03 01:53:19;;;;;;;14.80;10.40;;;;;;;11.67;67.76;95082.47;1676468;85;21474;-42
2023/01/03 01:55:54;;;;;;;14.93;10.28;;;;;;;11.70;67.66;95080.83;1676955;85;21063;-41
2023/01/03 01:58:23;;;;;;;23.35;13.20;;;;;;;11.69;67.63;95083.42;1677223;85;21012;-41
2023/01/03 02:00:49;;;;;;;11.95;8.63;;;;;;;11.66;67.69;95086.45;1677136;85;21035;-42
2023/01/03 02:03:16;;;;;;;11.48;9.08;;;;;;;11.68;67.68;95079.13;1676756;85;21271;-42
2023/01/03 02:05:47;;;;;;;6.92;6.22;;;;;;;11.64;67.73;95072.34;1678154;85;21672;-43
2023/01/03 02:08:14;;;;;;;9.95;6.90;;;;;;;11.63;67.80;95064.52;1637141;87;21052;-43
2023/01/03 02:11:14;;;;;;;7.47;6.75;;;;;;;11.62;67.94;95062.97;1625716;88;21058;-42
2023/01/03 02:14:04;;;;;;;13.08;10.25;;;;;;;11.61;68.05;95070.48;1654508;86;21140;-42
2023/01/03 02:16:47;;;;;;;10.38;8.93;;;;;;;11.52;68.26;95075.87;1662167;85;21279;-41
2023/01/03 02:19:54;;;;;;;7.65;6.85;;;;;;;11.42;68.54;95071.50;1662046;86;21556;-42
2023/01/03 02:22:35;;;;;;;13.00;6.72;;;;;;;11.33;69.01;95075.53;1527541;93;21124;-41
2023/01/03 02:25:30;;;;;;;6.58;5.87;;;;;;;11.27;69.41;95067.67;1530145;93;21123;-42
2023/01/03 02:28:23;;;;;;;7.40;6.70;;;;;;;11.26;69.81;95062.00;1541433;93;21100;-43
2023/01/03 02:31:37;;;;;;;8.28;7.30;;;;;;;11.27;69.66;95062.75;1540518;92;21173;-42
2023/01/03 02:34:24;;;;;;;7.75;6.80;;;;;;;11.22;69.63;95064.11;1542056;93;21150;-43
2023/01/03 02:37:31;;;;;;;12.30;8.70;;;;;;;11.13;69.82;95065.99;1541712;92;21534;-43
2023/01/03 02:40:13;;;;;;;13.15;9.13;;;;;;;11.04;69.99;95061.75;1541899;92;21154;-44
2023/01/03 02:43:09;;;;;;;8.33;7.17;;;;;;;10.96;70.23;95067.33;1541597;93;21125;-43
2023/01/03 02:45:53;;;;;;;11.28;7.17;;;;;;;10.91;70.39;95072.77;1566230;91;21210;-43
2023/01/03 02:48:49;;;;;;;9.18;8.10;;;;;;;10.86;70.63;95072.55;1541024;93;21193;-43
2023/01/03 02:51:30;;;;;;;9.03;7.90;;;;;;;10.85;70.92;95075.92;1496350;95;22463;-42
2023/01/03 02:53:56;;;;;;;13.22;10.23;;;;;;;10.83;71.08;95074.19;1485081;96;21314;-42
2023/01/03 02:56:29;;;;;;;9.58;8.58;;;;;;;10.81;71.08;95075.23;1514758;92;21666;-43
2023/01/03 02:59:04;;;;;;;11.25;8.63;;;;;;;10.79;70.96;95069.41;1491133;94;21198;-42
2023/01/03 03:01:32;;;;;;;8.60;7.70;;;;;;;10.76;70.94;95056.53;1520829;94;21158;-43
2023/01/03 03:03:58;;;;;;;8.10;7.30;;;;;;;10.69;70.90;95064.85;1491944;96;21115;-43
2023/01/03 03:06:48;;;;;;;10.15;7.05;;;;;;;10.60;70.94;95061.37;1531745;93;21167;-42
2023/01/03 03:09:16;;;;;;;8.45;7.42;;;;;;;10.54;71.15;95062.36;1532196;93;21095;-42
2023/01/03 03:14:47;;;;;;;16.52;12.05;;;;;;;10.48;71.77;95062.13;1532019;92;21080;-42
2023/01/03 03:17:24;;;;;;;39.75;19.98;;;;;;;10.49;71.70;95064.28;1531574;93;21629;-42
2023/01/03 03:25:44;;;;;;;34.75;21.93;;;;;;;10.12;71.93;95067.12;1534218;92;21523;-42
2023/01/03 03:31:16;;;;;;;51.95;24.55;;;;;;;10.00;72.67;95068.43;1546024;92;21100;-44
2023/01/03 03:34:22;;;;;;;58.35;28.98;;;;;;;9.91;72.81;95064.16;1538693;93;21134;-42
2023/01/03 03:37:18;;;;;;;78.12;35.58;;;;;;;9.77;72.88;95068.69;1607144;89;21099;-43
2023/01/03 03:46:01;;;;;;;41.98;25.25;;;;;;;9.39;73.73;95080.85;1581467;90;21521;-43
2023/01/03 03:51:35;;;;;;;33.58;19.32;;;;;;;9.22;74.10;95083.44;1626165;86;21123;-44
2023/01/03 03:54:06;;;;;;;26.55;16.73;;;;;;;9.12;74.47;95087.23;1663822;84;21803;-47
2023/01/03 03:56:33;;;;;;;23.98;14.18;;;;;;;9.07;74.89;95097.33;1656728;84;21576;-43
2023/01/03 03:59:03;;;;;;;26.62;15.88;;;;;;;9.07;75.19;95102.06;1708657;84;21701;-42
2023/01/03 04:01:30;;;;;;;28.35;17.48;;;;;;;9.05;75.26;95097.61;1708864;83;22488;-42
2023/01/03 04:04:01;;;;;;;27.07;15.75;;;;;;;9.02;75.39;95097.06;1708603;84;21075;-43
2023/01/03 04:06:38;;;;;;;26.05;15.70;;;;;;;8.96;75.43;95096.05;1708941;82;21580;-43
2023/01/03 04:09:05;;;;;;;22.58;14.87;;;;;;;8.89;75.63;95094.23;1708256;82;21119;-42
2023/01/03 04:11:31;;;;;;;22.87;15.15;;;;;;;8.84;75.85;95098.08;1685024;84;21155;-43
2023/01/03 04:13:58;;;;;;;22.67;14.58;;;;;;;8.77;75.85;95105.11;1708428;82;21062;-45
2023/01/03 04:16:25;;;;;;;22.70;14.87;;;;;;;8.74;76.15;95106.55;1684101;84;21103;-42
2023/01/03 04:18:52;;;;;;;25.35;15.35;;;;;;;8.73;76.13;95111.28;1704008;82;21429;-42
2023/01/03 04:21:18;;;;;;;25.08;16.20;;;;;;;8.70;76.51;95105.28;1685547;83;21162;-44
2023/01/03 04:23:45;;;;;;;24.05;15.95;;;;;;;8.72;76.86;95100.73;1678350;84;21084;-44
2023/01/03 04:26:12;;;;;;;25.48;17.20;;;;;;;8.69;76.56;95101.58;1675880;84;21565;-43
2023/01/03 04:28:39;;;;;;;24.07;16.50;;;;;;;8.62;76.59;95103.88;1673165;82;21633;-44
2023/01/03 04:31:06;;;;;;;18.67;14.25;;;;;;;8.56;76.76;95102.06;1673442;83;21250;-42
2023/01/03 04:33:32;;;;;;;17.98;13.15;;;;;;;8.52;77.01;95106.86;1673392;84;21565;-43
2023/01/03 04:35:59;;;;;;;15.35;11.12;;;;;;;8.48;76.84;95110.28;1673469;83;21056;-43
2023/01/03 04:38:26;;;;;;;18.02;12.85;;;;;;;8.42;76.59;95125.08;1673560;84;21025;-43
2023/01/03 04:40:53;;;;;;;18.73;15.03;;;;;;;8.34;77.00;95125.66;1673774;84;21064;-42
2023/01/03 04:46:05;;;;;;;28.23;16.70;;;;;;;8.34;78.63;95133.30;1673546;83;21013;-42
2023/01/03 04:48:32;;;;;;;30.27;18.67;;;;;;;8.40;78.83;95136.31;1673475;84;21096;-43
2023/01/03 04:50:59;;;;;;;29.02;18.52;;;;;;;8.43;78.96;95141.70;1673554;84;21052;-44
2023/01/03 04:53:26;;;;;;;53.33;30.08;;;;;;;8.44;78.84;95152.84;1673544;84;21143;-42
2023/01/03 04:55:55;;;;;;;61.65;35.92;;;;;;;8.44;78.14;95140.50;1673391;84;21314;-42
2023/01/03 04:58:22;;;;;;;65.70;39.30;;;;;;;8.39;77.36;95155.30;1672916;84;21141;-42
2023/01/03 05:00:48;;;;;;;76.70;46.25;;;;;;;8.30;77.53;95155.90;1757241;81;20963;-43
2023/01/03 05:03:16;;;;;;;75.25;46.10;;;;;;;8.26;77.82;95159.90;1773291;79;21007;-42
2023/01/03 05:05:43;;;;;;;75.35;46.23;;;;;;;8.21;78.07;95168.00;1770603;81;21038;-44
2023/01/03 05:08:11;;;;;;;76.05;47.43;;;;;;;8.17;78.32;95171.97;1781450;78;21011;-43
2023/01/03 05:10:39;;;;;;;44.53;28.20;;;;;;;8.17;78.74;95179.61;1787954;78;20938;-43
2023/01/03 05:13:07;;;;;;;36.20;23.00;;;;;;;8.18;79.03;95178.44;1803817;78;21068;-43
2023/01/03 05:15:36;;;;;;;22.20;16.12;;;;;;;8.22;79.79;95173.66;1804115;79;20997;-42
2023/01/03 05:18:03;;;;;;;14.33;11.75;;;;;;;8.22;79.90;95180.52;1803892;78;20962;-43
2023/01/03 05:26:12;;;;;;;31.52;20.62;;;;;;;8.03;79.82;95175.00;1755671;80;21091;-46
2023/01/03 05:28:39;;;;;;;40.92;24.02;;;;;;;7.89;79.73;95177.39;1762891;81;21044;-45
2023/01/03 05:31:06;;;;;;;68.78;36.58;;;;;;;7.83;79.78;95179.07;1762974;80;21464;-46
2023/01/03 05:33:33;;;;;;;62.58;34.38;;;;;;;7.79;79.54;95175.63;1762477;81;21122;-52
2023/01/03 05:36:00;;;;;;;61.30;36.28;;;;;;;7.75;79.39;95180.41;1761851;80;21108;-52
2023/01/03 05:38:27;;;;;;;144.50;70.32;;;;;;;7.73;79.70;95181.39;1762789;81;21005;-52
2023/01/03 05:40:53;;;;;;;116.08;58.25;;;;;;;7.73;79.50;95187.48;1762947;81;21703;-42
2023/01/03 05:43:20;;;;;;;72.15;38.13;;;;;;;7.70;79.61;95190.45;1763042;81;21554;-42
2023/01/03 05:45:51;;;;;;;96.82;50.55;;;;;;;7.67;79.64;95196.77;1762938;80;21836;-44
2023/01/03 05:48:19;;;;;;;120.20;61.08;;;;;;;7.60;79.66;95195.52;1762682;81;21127;-46
2023/01/03 05:50:46;;;;;;;121.25;61.85;;;;;;;7.56;79.68;95205.73;1763212;80;21070;-43
2023/01/03 05:53:13;;;;;;;188.95;93.87;;;;;;;7.53;80.15;95214.79;1762301;81;21052;-45
2023/01/03 05:55:40;;;;;;;166.50;86.37;;;;;;;7.51;80.29;95217.17;1762992;80;21013;-46
2023/01/03 05:58:10;;;;;;;153.57;76.37;;;;;;;7.47;79.81;95210.98;1763052;80;21238;-46
2023/01/03 06:00:37;;;;;;;134.72;70.52;;;;;;;7.38;79.75;95217.56;1763328;81;21021;-45
2023/01/03 06:03:03;;;;;;;296.90;170.22;;;;;;;7.30;79.98;95217.51;1762858;81;20953;-44
2023/01/03 06:05:31;;;;;;;142.37;76.37;;;;;;;7.26;80.42;95214.64;1763015;81;21105;-44
2023/01/03 06:08:01;;;;;;;108.22;53.52;;;;;;;7.22;80.68;95215.30;1762997;80;21012;-44
2023/01/03 06:10:29;;;;;;;145.20;72.53;;;;;;;7.18;81.03;95229.02;1737358;82;21070;-46
2023/01/03 06:12:56;;;;;;;129.30;65.37;;;;;;;7.16;80.98;95236.87;1716447;83;21548;-45
2023/01/03 06:15:23;;;;;;;109.17;59.30;;;;;;;7.13;80.81;95232.23;1716821;83;21476;-46
2023/01/03 06:18:01;;;;;;;103.78;56.05;;;;;;;7.13;80.83;95234.20;1716850;83;21078;-45
2023/01/03 06:20:28;;;;;;;105.05;56.80;;;;;;;7.15;80.90;95235.32;1738860;82;21055;-48
2023/01/03 06:22:54;;;;;;;107.15;57.15;;;;;;;7.17;80.73;95241.76;1728734;83;21209;-47
2023/01/03 06:25:22;;;;;;;100.10;54.50;;;;;;;7.16;80.02;95242.34;1729866;81;21060;-48
2023/01/03 06:27:50;;;;;;;107.95;56.50;;;;;;;7.07;80.01;95244.65;1769868;80;21373;-47
2023/01/03 06:30:17;;;;;;;79.40;43.38;;;;;;;6.97;79.66;95255.13;1777027;80;21009;-45
2023/01/03 06:32:44;;;;;;;99.30;54.10;;;;;;;6.81;79.71;95249.48;1763283;81;21575;-47
2023/01/03 06:35:11;;;;;;;101.22;56.53;;;;;;;6.68;80.39;95251.23;1780531;80;21121;-46
2023/01/03 06:37:38;;;;;;;128.23;70.65;;;;;;;6.61;80.70;95249.94;1749193;81;21564;-45
2023/01/03 06:40:07;;;;;;;128.75;75.72;;;;;;;6.55;81.20;95254.31;1728450;83;21130;-44
2023/01/03 06:42:41;;;;;;;115.85;68.42;;;;;;;6.57;81.77;95251.94;1726682;83;21004;-46
2023/01/03 06:53:33;;;;;;;117.50;70.40;;;;;;;6.70;81.89;95261.92;1761803;81;21880;-47
2023/01/03 06:56:00;;;;;;;131.15;74.72;;;;;;;6.69;82.34;95265.84;1777975;80;21148;-45
2023/01/03 06:58:27;;;;;;;142.25;82.12;;;;;;;6.75;82.76;95260.13;1758844;81;21083;-45
2023/01/03 07:00:55;;;;;;;128.45;72.67;;;;;;;6.81;82.89;95271.36;1779158;79;21245;-48
2023/01/03 07:03:22;;;;;;;151.02;83.05;;;;;;;6.81;82.54;95268.63;1730903;81;21031;-47
2023/01/03 07:05:51;;;;;;;148.22;86.67;;;;;;;6.75;82.58;95276.53;1745439;81;21170;-45
2023/01/03 07:08:19;;;;;;;173.13;102.20;;;;;;;6.74;83.19;95275.55;1789781;80;21086;-45
2023/01/03 07:10:46;;;;;;;195.68;112.95;;;;;;;6.82;83.69;95276.42;1776723;80;21502;-47
2023/01/03 07:16:01;;;;;;;107.83;64.87;;;;;;;7.02;83.35;95284.75;1790665;78;21545;-51
2023/01/03 07:18:28;;;;;;;105.22;64.37;;;;;;;7.14;83.46;95278.92;1785176;78;20984;-49
2023/01/03 07:20:55;;;;;;;136.90;81.87;;;;;;;7.26;82.97;95279.73;1800518;77;21169;-48
2023/01/03 07:23:22;;;;;;;154.85;91.37;;;;;;;7.35;82.64;95287.44;1777090;79;21526;-45
2023/01/03 07:25:55;;;;;;;149.72;93.12;;;;;;;7.36;82.09;95278.79;1787473;78;21235;-49
2023/01/03 07:28:24;;;;;;;151.27;91.57;;;;;;;7.38;81.88;95283.25;1793183;78;21079;-49
2023/01/03 07:30:51;;;;;;;152.20;89.28;;;;;;;7.38;81.69;95285.98;1803820;78;21051;-48
2023/01/03 07:33:18;;;;;;;136.68;81.67;;;;;;;7.36;81.63;95288.37;1784761;78;21589;-48
2023/01/03 07:35:46;;;;;;;112.45;69.92;;;;;;;7.40;81.81;95287.75;1790591;78;20961;-44
2023/01/03 07:38:13;;;;;;;94.28;56.05;;;;;;;7.49;81.96;95289.36;1791612;78;21108;-46
2023/01/03 07:40:40;;;;;;;81.55;52.40;;;;;;;7.62;81.79;95279.39;1798898;78;20981;-48
2023/01/03 07:45:59;;;;;;;69.25;43.60;;;;;;;7.87;81.49;95283.11;1765092;80;21040;-49
2023/01/03 07:48:26;;;;;;;92.10;57.85;;;;;;;8.02;81.23;95283.81;1793974;78;21052;-51
2023/01/03 07:50:57;;;;;;;76.95;52.90;;;;;;;8.15;80.78;95279.28;1794328;78;21325;-47
2023/01/03 07:53:24;;;;;;;79.62;53.35;;;;;;;8.23;80.28;95279.36;1806962;78;20988;-45
2023/01/03 07:55:51;;;;;;;80.85;51.55;;;;;;;8.31;80.20;95284.91;1821810;77;21030;-46
2023/01/03 07:58:18;;;;;;;47.48;31.12;;;;;;;8.38;79.84;95290.25;1826701;77;21066;-49
2023/01/03 08:00:45;;;;;;;49.70;33.85;;;;;;;8.47;79.68;95286.34;1780248;79;21199;-47
2023/01/03 08:03:14;;;;;;;55.98;37.30;;;;;;;8.50;79.41;95293.75;1789648;78;21193;-50
2023/01/03 08:05:41;;;;;;;63.73;39.73;;;;;;;8.59;79.58;95298.69;1788371;79;21052;-61
2023/01/03 08:08:08;;;;;;;65.65;41.73;;;;;;;8.73;79.56;95299.17;1791222;79;20994;-46
2023/01/03 08:13:21;;;;;;;74.92;46.42;;;;;;;8.98;78.65;95290.63;1788659;80;21013;-45
2023/01/03 08:15:55;;;;;;;75.52;47.48;;;;;;;9.06;78.45;95293.39;1788632;80;21919;-48
2023/01/03 08:18:25;;;;;;;114.90;59.15;;;;;;;9.16;78.21;95293.78;1780722;78;21072;-46
2023/01/03 08:20:57;;;;;;;125.05;69.17;;;;;;;9.33;78.00;95284.97;1782620;78;21669;-45
2023/01/03 08:23:31;;;;;;;156.18;84.20;;;;;;;9.46;77.51;95287.23;1730600;81;21186;-45
2023/01/03 08:26:14;;;;;;;79.42;47.88;;;;;;;9.60;77.30;95286.92;1725705;81;21632;-46
2023/01/03 08:28:43;;;;;;;78.55;46.20;;;;;;;9.73;76.50;95289.94;1732393;81;21034;-45
2023/01/03 08:31:18;;;;;;;70.22;44.67;;;;;;;9.78;75.72;95286.67;1730102;81;21627;-47
2023/01/03 08:33:53;;;;;;;67.25;46.68;;;;;;;9.74;75.48;95283.24;1732704;81;21087;-44
2023/01/03 08:36:20;;;;;;;75.78;46.65;;;;;;;9.73;75.52;95284.45;1765583;80;21567;-46
2023/01/03 08:39:04;;;;;;;53.15;33.65;;;;;;;9.77;75.59;95281.01;1739507;80;21243;-47
2023/01/03 08:41:35;;;;;;;44.63;29.80;;;;;;;9.77;75.56;95274.75;1729009;81;22168;-49
2023/01/03 08:44:02;;;;;;;70.25;40.20;;;;;;;9.84;75.81;95281.44;1724396;82;21123;-46
2023/01/03 08:49:30;;;;;;;;;;;;;;;;;;;;;
2023/01/03 08:52:24;;;;;;;93.00;55.12;;;;;;;10.35;75.18;95274.47;1561116;90;21225;-51
2023/01/03 08:54:52;;;;;;;79.53;48.98;;;;;;;10.55;74.31;95281.23;1557295;89;21128;-51
2023/01/03 08:57:26;;;;;;;71.17;46.20;;;;;;;10.77;74.01;95278.86;1524464;91;21457;-46
2023/01/03 08:59:53;;;;;;;78.28;45.15;;;;;;;10.99;73.46;95279.17;1527079;91;21192;-42
2023/01/03 09:02:26;;;;;;;75.40;46.30;;;;;;;11.19;73.33;95273.51;1530327;92;21193;-45
2023/01/03 09:04:55;;;;;;;70.25;45.17;;;;;;;11.46;73.02;95271.89;1537277;91;21159;-50
2023/01/03 09:07:22;;;;;;;61.73;39.53;;;;;;;11.87;72.42;95258.02;1531977;91;21222;-41
2023/01/03 09:09:49;;;;;;;57.30;36.15;;;;;;;12.36;71.18;95264.67;1535460;91;21184;-42
2023/01/03 09:12:17;;;;;;;34.65;24.57;;;;;;;12.81;69.39;95259.53;1535023;92;21109;-46
2023/01/03 09:14:47;;;;;;;33.42;23.65;;;;;;;13.04;67.57;95261.90;1536018;90;21647;-46
2023/01/03 09:17:15;;;;;;;46.90;30.82;;;;;;;13.00;66.62;95255.70;1533384;91;21133;-48
2023/01/03 09:19:42;;;;;;;41.98;27.32;;;;;;;13.00;66.77;95259.84;1531375;91;21905;-50
2023/01/03 09:22:10;;;;;;;33.15;19.95;;;;;;;13.19;66.27;95255.98;1535864;92;46842;-49
2023/01/03 09:24:38;;;;;;;29.60;19.55;;;;;;;13.50;65.30;95256.19;1541832;92;21691;-49
2023/01/03 09:27:04;;;;;;;28.20;19.65;;;;;;;13.85;64.33;95250.63;1561078;88;21168;-50
2023/01/03 09:29:32;;;;;;;26.40;18.75;;;;;;;14.10;62.97;95248.25;1559012;90;21110;-52
2023/01/03 09:32:02;;;;;;;26.87;18.45;;;;;;;14.16;62.47;95243.70;1563568;90;21146;-44
2023/01/03 09:34:27;;;;;;;22.05;14.58;;;;;;;14.18;62.17;95243.38;1545576;90;21181;-45
2023/01/03 09:36:54;;;;;;;19.75;13.35;;;;;;;14.25;61.95;95240.94;1539683;92;21134;-45
2023/01/03 09:39:21;;;;;;;20.72;13.32;;;;;;;14.40;61.63;95235.72;1544417;91;21134;-44
2023/01/03 09:43:11;;;;;;;27.27;16.32;;;;;;;14.59;60.57;95226.23;1535118;92;21114;-46
2023/01/03 09:44:17;;;;;;;28.30;16.77;;;;;;;14.70;60.39;95225.92;1532936;92;21208;-47
2023/01/03 09:46:44;;;;;;;23.22;13.48;;;;;;;14.79;59.89;95225.91;1549715;91;21055;-45
2023/01/03 09:49:11;;;;;;;16.73;12.65;;;;;;;14.77;59.20;95225.61;1540767;92;21095;-46
2023/01/03 10:03:43;;;;;;;17.07;11.45;;;;;;;15.00;58.54;95218.03;1632931;86;21091;-45
2023/01/03 10:06:30;;;;;;;;;;;;;;;15.15;58.40;95214.03;1629294;86;21099;-47
2023/01/03 10:09:28;;;;;;;14.70;10.93;;;;;;;15.19;57.74;95216.02;1696336;81;20271;-47
2023/01/03 10:12:19;;;;;;;17.70;12.58;;;;;;;15.20;57.08;95214.15;1671058;84;21128;-51
2023/01/03 10:15:14;;;;;;;13.93;11.48;;;;;;;15.32;56.98;95209.08;1657891;84;21044;-44
2023/01/03 10:18:08;;;;;;;18.70;12.43;;;;;;;15.73;55.83;95211.09;1619646;87;21209;-47
2023/01/03 10:20:58;;;;;;;17.65;10.90;;;;;;;16.12;54.58;95208.58;1614787;87;21580;-45
2023/01/03 10:23:25;;;;;;;12.35;9.20;;;;;;;16.28;53.72;95209.56;1530989;92;21171;-45
2023/01/03 10:25:53;;;;;;;14.50;10.35;;;;;;;16.30;53.63;95205.08;1539671;91;21341;-45
2023/01/03 10:28:27;;;;;;;13.15;11.68;;;;;;;16.39;53.30;95202.89;1542873;91;21139;-48
2023/01/03 10:31:20;;;;;;;14.58;11.30;;;;;;;16.56;52.79;95199.84;1543213;91;21897;-46
2023/01/03 10:33:48;;;;;;;16.40;10.78;;;;;;;16.69;52.44;95187.22;1538156;92;21072;-46
2023/01/03 10:36:18;;;;;;;17.45;12.15;;;;;;;16.78;51.96;95187.77;1537042;91;21150;-47
2023/01/03 10:38:45;;;;;;;20.77;14.23;;;;;;;16.88;51.73;95185.83;1570555;90;21169;-45
2023/01/03 10:41:22;;;;;;;19.20;14.23;;;;;;;17.00;51.37;95188.97;1538931;91;21159;-48
2023/01/03 10:44:00;;;;;;;15.75;11.60;;;;;;;17.11;50.66;95189.79;1451982;97;21371;-45
2023/01/03 10:46:28;;;;;;;17.42;13.40;;;;;;;16.97;50.82;95186.36;1468646;96;21169;-47
2023/01/03 10:48:58;;;;;;;17.98;13.08;;;;;;;16.77;51.18;95186.98;1461188;96;21230;-45
2023/01/03 10:51:34;;;;;;;16.60;10.38;;;;;;;16.80;51.07;95182.50;1471471;95;21182;-46
2023/01/03 10:54:12;;;;;;;10.58;9.38;;;;;;;16.99;50.92;95183.87;1494496;92;21119;-47
2023/01/03 10:56:39;;;;;;;17.87;9.83;;;;;;;17.32;49.90;95181.05;1475159;97;21195;-45
2023/01/03 10:59:16;;;;;;;14.03;8.50;;;;;;;17.64;49.26;95184.91;1474970;95;21169;-44
2023/01/03 11:02:13;;;;;;;13.93;8.45;;;;;;;17.83;48.58;95184.83;1473586;96;21209;-48
2023/01/03 11:04:42;;;;;;;16.12;9.23;;;;;;;18.06;48.29;95187.47;1460960;97;21152;-46
2023/01/03 11:07:13;;;;;;;21.35;12.93;;;;;;;18.13;47.82;95187.05;1501989;95;21095;-49
2023/01/03 11:09:52;;;;;;;22.22;11.60;;;;;;;18.32;47.56;95180.75;1564015;90;21059;-45
2023/01/03 11:12:38;;;;;;;17.45;9.33;;;;;;;18.49;47.21;95176.16;1558771;89;21140;-48
2023/01/03 11:15:33;;;;;;;13.32;9.18;;;;;;;18.59;46.94;95177.56;1558606;91;21313;-50
2023/01/03 11:18:03;;;;;;;26.65;10.32;;;;;;;18.63;46.47;95166.97;1563931;90;21234;-44
2023/01/03 11:20:38;;;;;;;19.75;8.73;;;;;;;18.61;46.42;95173.66;1566338;88;21190;-47
2023/01/03 11:23:16;;;;;;;23.22;9.23;;;;;;;18.65;45.80;95167.23;1586895;88;21068;-46
2023/01/03 11:26:06;;;;;;;19.37;7.87;;;;;;;18.82;45.63;95163.27;1560305;90;21217;-48
2023/01/03 11:29:09;;;;;;;12.95;8.88;;;;;;;19.10;44.87;95167.09;1553043;90;21108;-46
2023/01/03 11:32:01;;;;;;;24.43;9.30;;;;;;;19.58;44.01;95164.66;1532679;92;21449;-44
2023/01/03 11:34:45;;;;;;;21.37;8.35;;;;;;;19.87;42.84;95167.18;1517389;93;21097;-47
2023/01/03 11:37:32;;;;;;;16.73;7.30;;;;;;;19.72;42.91;95163.76;1506543;93;21194;-47
2023/01/03 11:40:39;;;;;;;8.70;6.12;;;;;;;19.40;42.80;95162.22;1455232;95;21266;-46
2023/01/03 11:43:37;;;;;;;16.77;8.38;;;;;;;19.07;42.95;95163.91;1489348;95;21171;-49
2023/01/03 11:46:24;;;;;;;40.88;12.85;;;;;;;18.76;43.73;95153.44;1495919;94;21310;-47
2023/01/03 11:49:19;;;;;;;23.95;20.43;;;;;;;18.48;44.31;95153.73;1496178;93;21177;-46
2023/01/03 11:52:11;;;;;;;17.42;14.50;;;;;;;18.11;44.96;95152.57;1512695;93;21234;-50
2023/01/03 11:55:10;;;;;;;10.88;8.88;;;;;;;17.75;45.56;95166.98;1530650;93;21170;-49
2023/01/03 11:58:01;;;;;;;9.90;6.20;;;;;;;17.42;45.95;95165.08;1532044;92;21194;-50
2023/01/03 12:00:38;;;;;;;13.65;7.05;;;;;;;16.94;46.56;95170.64;1551640;91;21772;-47
2023/01/03 12:03:11;;;;;;;19.12;13.45;;;;;;;16.44;47.53;95168.30;1532742;93;21158;-46
2023/01/03 12:05:48;;;;;;;18.87;11.45;;;;;;;16.07;48.31;95169.61;1514608;93;21703;-49
2023/01/03 12:08:35;;;;;;;12.98;8.60;;;;;;;15.76;48.95;95172.69;1531140;92;21202;-46
2023/01/03 12:11:21;;;;;;;12.93;8.63;;;;;;;15.48;49.79;95177.44;1549213;89;21188;-44
2023/01/03 12:14:02;;;;;;;12.20;7.25;;;;;;;15.22;50.56;95179.05;1589940;90;21229;-47
2023/01/03 12:16:34;;;;;;;11.43;8.05;;;;;;;14.95;51.17;95176.32;1561132;90;21795;-46
2023/01/03 12:19:15;;;;;;;14.37;10.10;;;;;;;14.75;51.64;95178.21;1568087;90;21543;-46
2023/01/03 12:21:43;;;;;;;20.25;15.38;;;;;;;14.63;52.35;95170.83;1540556;91;21194;-49
2023/01/03 12:24:21;;;;;;;12.13;9.83;;;;;;;14.53;52.37;95169.31;1582709;89;21099;-46
2023/01/03 12:27:04;;;;;;;24.27;12.75;;;;;;;14.49;52.41;95170.05;1569428;90;21792;-45
2023/01/03 12:29:47;;;;;;;27.80;11.05;;;;;;;14.47;52.95;95167.61;1552120;90;21170;-46
2023/01/03 12:32:19;;;;;;;25.55;10.28;;;;;;;14.44;53.24;95172.06;1544820;92;21154;-45
2023/01/03 12:34:55;;;;;;;11.53;8.75;;;;;;;14.38;53.47;95172.38;1541988;91;21113;-53
2023/01/03 12:37:25;;;;;;;16.25;7.97;;;;;;;14.33;53.67;95175.77;1548854;92;21199;-46
2023/01/03 12:40:02;;;;;;;12.20;9.50;;;;;;;14.28;53.57;95176.36;1555514;91;21889;-47
2023/01/03 12:42:39;;;;;;;16.37;10.55;;;;;;;14.22;53.34;95176.83;1552128;90;21140;-45
2023/01/03 12:45:14;;;;;;;12.80;10.93;;;;;;;14.10;53.52;95170.77;1541805;92;21121;-49
2023/01/03 12:48:09;;;;;;;13.58;7.42;;;;;;;14.02;53.85;95177.22;1556672;90;21090;-49
2023/01/03 12:50:50;;;;;;;14.65;10.28;;;;;;;13.92;54.03;95170.74;1562194;89;21202;-45
2023/01/03 12:54:05;;;;;;;11.83;7.92;;;;;;;13.83;54.35;95174.89;1528566;92;21398;-47
2023/01/03 12:57:09;;;;;;;11.53;8.98;;;;;;;13.75;54.54;95176.38;1569808;90;22347;-48
2023/01/03 13:00:19;;;;;;;13.65;8.23;;;;;;;13.66;54.77;95175.74;1588084;88;21567;-45
2023/01/03 13:02:51;;;;;;;19.05;8.43;;;;;;;13.60;55.07;95174.81;1604871;87;21115;-44